sensor_id;sensor_type;location;lat;lon;timestamp;P1;durP1;ratioP1;P2;durP2;ratioP2
49131;SDS011;35149;51.196;6.204;2022-12-16T00:01:27;47.35;;;25.60;;
49131;SDS011;35149;51.196;6.204;2022-12-16T00:03:54;55.45;;;26.45;;
49131;SDS011;35149;51.196;6.204;2022-12-16T00:06:25;54.28;;;25.65;;
49131;SDS011;35149;51.196;6.204;2022-12-16T00:08:54;49.47;;;27.65;;
49131;SDS011;35149;51.196;6.204;2022-12-16T00:11:22;55.10;;;27.38;;
49131;SDS011;35149;51.196;6.204;2022-12-16T00:13:52;53.70;;;27.45;;
49131;SDS011;35149;51.196;6.204;2022-12-16T00:16:20;46.70;;;25.20;;
49131;SDS011;35149;51.196;6.204;2022-12-16T00:18:50;49.95;;;24.67;;
49131;SDS011;35149;51.196;6.204;2022-12-16T00:21:17;49.40;;;27.13;;
49131;SDS011;35149;51.196;6.204;2022-12-16T00:23:44;51.13;;;25.52;;
49131;SDS011;35149;51.196;6.204;2022-12-16T00:28:45;45.20;;;23.50;;
49131;SDS011;35149;51.196;6.204;2022-12-16T00:31:11;54.30;;;24.67;;
49131;SDS011;35149;51.196;6.204;2022-12-16T00:33:40;50.10;;;25.13;;
49131;SDS011;35149;51.196;6.204;2022-12-16T00:36:07;48.80;;;25.35;;
49131;SDS011;35149;51.196;6.204;2022-12-16T00:38:41;52.78;;;26.48;;
49131;SDS011;35149;51.196;6.204;2022-12-16T00:41:08;53.88;;;26.48;;
49131;SDS011;35149;51.196;6.204;2022-12-16T00:43:35;50.05;;;27.27;;
49131;SDS011;35149;51.196;6.204;2022-12-16T00:46:02;55.25;;;26.90;;
49131;SDS011;35149;51.196;6.204;2022-12-16T00:48:31;51.22;;;27.13;;
49131;SDS011;35149;51.196;6.204;2022-12-16T00:50:59;58.13;;;27.92;;
49131;SDS011;35149;51.196;6.204;2022-12-16T00:53:26;48.88;;;25.42;;
49131;SDS011;35149;51.196;6.204;2022-12-16T00:56:06;53.95;;;29.63;;
49131;SDS011;35149;51.196;6.204;2022-12-16T00:58:34;46.45;;;25.38;;
49131;SDS011;35149;51.196;6.204;2022-12-16T01:01:02;48.70;;;25.20;;
49131;SDS011;35149;51.196;6.204;2022-12-16T01:03:30;50.05;;;26.77;;
49131;SDS011;35149;51.196;6.204;2022-12-16T01:05:59;53.13;;;26.88;;
49131;SDS011;35149;51.196;6.204;2022-12-16T01:08:25;47.05;;;26.23;;
49131;SDS011;35149;51.196;6.204;2022-12-16T01:10:57;47.33;;;27.02;;
49131;SDS011;35149;51.196;6.204;2022-12-16T01:13:25;51.38;;;27.38;;
49131;SDS011;35149;51.196;6.204;2022-12-16T01:15:51;49.50;;;26.80;;
49131;SDS011;35149;51.196;6.204;2022-12-16T01:18:19;55.60;;;28.25;;
49131;SDS011;35149;51.196;6.204;2022-12-16T01:20:46;48.78;;;26.27;;
49131;SDS011;35149;51.196;6.204;2022-12-16T01:23:15;48.25;;;25.95;;
49131;SDS011;35149;51.196;6.204;2022-12-16T01:25:42;53.72;;;27.88;;
49131;SDS011;35149;51.196;6.204;2022-12-16T01:28:09;43.85;;;25.63;;
49131;SDS011;35149;51.196;6.204;2022-12-16T01:30:38;57.13;;;26.77;;
49131;SDS011;35149;51.196;6.204;2022-12-16T01:33:05;55.42;;;27.88;;
49131;SDS011;35149;51.196;6.204;2022-12-16T01:35:34;43.75;;;25.35;;
49131;SDS011;35149;51.196;6.204;2022-12-16T01:38:20;48.38;;;24.65;;
49131;SDS011;35149;51.196;6.204;2022-12-16T01:40:49;55.78;;;28.02;;
49131;SDS011;35149;51.196;6.204;2022-12-16T01:43:23;36.80;;;19.63;;
49131;SDS011;35149;51.196;6.204;2022-12-16T01:48:42;52.15;;;27.17;;
49131;SDS011;35149;51.196;6.204;2022-12-16T01:51:34;55.95;;;25.38;;
49131;SDS011;35149;51.196;6.204;2022-12-16T01:54:05;49.50;;;25.48;;
49131;SDS011;35149;51.196;6.204;2022-12-16T01:56:36;54.17;;;27.30;;
49131;SDS011;35149;51.196;6.204;2022-12-16T01:59:10;52.10;;;25.25;;
49131;SDS011;35149;51.196;6.204;2022-12-16T02:01:38;53.05;;;27.52;;
49131;SDS011;35149;51.196;6.204;2022-12-16T02:04:08;50.33;;;26.33;;
49131;SDS011;35149;51.196;6.204;2022-12-16T02:06:37;46.15;;;25.80;;
49131;SDS011;35149;51.196;6.204;2022-12-16T02:09:04;50.63;;;24.77;;
49131;SDS011;35149;51.196;6.204;2022-12-16T02:17:19;45.35;;;23.88;;
49131;SDS011;35149;51.196;6.204;2022-12-16T02:20:07;44.10;;;23.15;;
49131;SDS011;35149;51.196;6.204;2022-12-16T02:25:46;47.65;;;23.50;;
49131;SDS011;35149;51.196;6.204;2022-12-16T02:28:59;42.67;;;24.23;;
49131;SDS011;35149;51.196;6.204;2022-12-16T02:34:58;50.25;;;25.58;;
49131;SDS011;35149;51.196;6.204;2022-12-16T02:43:18;51.03;;;25.85;;
49131;SDS011;35149;51.196;6.204;2022-12-16T02:46:00;52.08;;;26.67;;
49131;SDS011;35149;51.196;6.204;2022-12-16T02:48:30;50.13;;;26.85;;
49131;SDS011;35149;51.196;6.204;2022-12-16T02:50:57;47.92;;;24.42;;
49131;SDS011;35149;51.196;6.204;2022-12-16T02:53:24;51.67;;;27.23;;
49131;SDS011;35149;51.196;6.204;2022-12-16T02:56:10;48.85;;;25.60;;
49131;SDS011;35149;51.196;6.204;2022-12-16T02:59:11;50.72;;;27.00;;
49131;SDS011;35149;51.196;6.204;2022-12-16T03:02:11;45.08;;;24.33;;
49131;SDS011;35149;51.196;6.204;2022-12-16T03:05:06;47.67;;;24.92;;
49131;SDS011;35149;51.196;6.204;2022-12-16T03:07:39;46.05;;;24.67;;
49131;SDS011;35149;51.196;6.204;2022-12-16T03:10:09;52.40;;;26.13;;
49131;SDS011;35149;51.196;6.204;2022-12-16T03:12:39;47.72;;;25.45;;
49131;SDS011;35149;51.196;6.204;2022-12-16T03:15:12;47.30;;;25.42;;
49131;SDS011;35149;51.196;6.204;2022-12-16T03:17:45;43.72;;;25.88;;
49131;SDS011;35149;51.196;6.204;2022-12-16T03:20:17;42.72;;;24.75;;
49131;SDS011;35149;51.196;6.204;2022-12-16T03:22:51;49.80;;;25.35;;
49131;SDS011;35149;51.196;6.204;2022-12-16T03:25:20;49.42;;;26.35;;
49131;SDS011;35149;51.196;6.204;2022-12-16T03:30:43;46.38;;;22.65;;
49131;SDS011;35149;51.196;6.204;2022-12-16T03:33:18;44.08;;;23.85;;
49131;SDS011;35149;51.196;6.204;2022-12-16T03:36:03;46.85;;;23.00;;
49131;SDS011;35149;51.196;6.204;2022-12-16T03:38:35;42.00;;;21.27;;
49131;SDS011;35149;51.196;6.204;2022-12-16T03:41:03;41.38;;;22.83;;
49131;SDS011;35149;51.196;6.204;2022-12-16T03:43:33;42.20;;;22.10;;
49131;SDS011;35149;51.196;6.204;2022-12-16T03:46:01;42.13;;;23.35;;
49131;SDS011;35149;51.196;6.204;2022-12-16T03:48:31;39.30;;;23.42;;
49131;SDS011;35149;51.196;6.204;2022-12-16T03:50:59;38.45;;;21.15;;
49131;SDS011;35149;51.196;6.204;2022-12-16T03:53:31;39.88;;;21.60;;
49131;SDS011;35149;51.196;6.204;2022-12-16T03:56:02;41.97;;;21.63;;
49131;SDS011;35149;51.196;6.204;2022-12-16T03:58:29;40.90;;;22.05;;
49131;SDS011;35149;51.196;6.204;2022-12-16T04:00:56;40.30;;;21.48;;
49131;SDS011;35149;51.196;6.204;2022-12-16T04:03:25;34.55;;;20.17;;
49131;SDS011;35149;51.196;6.204;2022-12-16T04:05:52;40.47;;;22.48;;
49131;SDS011;35149;51.196;6.204;2022-12-16T04:08:18;34.13;;;20.60;;
49131;SDS011;35149;51.196;6.204;2022-12-16T04:10:45;35.10;;;21.55;;
49131;SDS011;35149;51.196;6.204;2022-12-16T04:13:34;37.28;;;20.80;;
49131;SDS011;35149;51.196;6.204;2022-12-16T04:16:19;39.50;;;22.30;;
49131;SDS011;35149;51.196;6.204;2022-12-16T04:19:04;35.03;;;20.10;;
49131;SDS011;35149;51.196;6.204;2022-12-16T04:21:50;36.72;;;19.40;;
49131;SDS011;35149;51.196;6.204;2022-12-16T04:24:38;32.33;;;18.52;;
49131;SDS011;35149;51.196;6.204;2022-12-16T04:27:04;42.10;;;21.67;;
49131;SDS011;35149;51.196;6.204;2022-12-16T04:29:49;38.25;;;22.05;;
49131;SDS011;35149;51.196;6.204;2022-12-16T04:32:38;38.40;;;21.88;;
49131;SDS011;35149;51.196;6.204;2022-12-16T04:35:24;35.55;;;20.50;;
49131;SDS011;35149;51.196;6.204;2022-12-16T04:38:09;41.53;;;21.70;;
49131;SDS011;35149;51.196;6.204;2022-12-16T04:40:56;39.72;;;20.52;;
49131;SDS011;35149;51.196;6.204;2022-12-16T04:43:47;35.67;;;19.75;;
49131;SDS011;35149;51.196;6.204;2022-12-16T04:46:34;35.65;;;19.95;;
49131;SDS011;35149;51.196;6.204;2022-12-16T04:49:20;36.15;;;20.00;;
49131;SDS011;35149;51.196;6.204;2022-12-16T04:52:07;34.45;;;20.77;;
49131;SDS011;35149;51.196;6.204;2022-12-16T04:54:52;38.03;;;19.63;;
49131;SDS011;35149;51.196;6.204;2022-12-16T04:57:38;37.28;;;20.52;;
49131;SDS011;35149;51.196;6.204;2022-12-16T05:00:25;39.78;;;21.45;;
49131;SDS011;35149;51.196;6.204;2022-12-16T05:03:11;34.20;;;19.00;;
49131;SDS011;35149;51.196;6.204;2022-12-16T05:05:57;34.45;;;19.42;;
49131;SDS011;35149;51.196;6.204;2022-12-16T05:08:44;34.88;;;19.95;;
49131;SDS011;35149;51.196;6.204;2022-12-16T05:11:32;36.28;;;19.73;;
49131;SDS011;35149;51.196;6.204;2022-12-16T05:14:18;30.63;;;18.52;;
49131;SDS011;35149;51.196;6.204;2022-12-16T05:17:03;29.13;;;18.58;;
49131;SDS011;35149;51.196;6.204;2022-12-16T05:19:49;32.33;;;17.85;;
49131;SDS011;35149;51.196;6.204;2022-12-16T05:22:35;31.30;;;18.25;;
49131;SDS011;35149;51.196;6.204;2022-12-16T05:25:25;30.58;;;17.48;;
49131;SDS011;35149;51.196;6.204;2022-12-16T05:28:10;30.27;;;17.98;;
49131;SDS011;35149;51.196;6.204;2022-12-16T05:30:58;36.10;;;17.40;;
49131;SDS011;35149;51.196;6.204;2022-12-16T05:33:44;32.60;;;18.38;;
49131;SDS011;35149;51.196;6.204;2022-12-16T05:36:33;31.60;;;18.33;;
49131;SDS011;35149;51.196;6.204;2022-12-16T05:39:25;30.05;;;18.17;;
49131;SDS011;35149;51.196;6.204;2022-12-16T05:42:11;36.45;;;18.88;;
49131;SDS011;35149;51.196;6.204;2022-12-16T05:44:56;34.72;;;17.88;;
49131;SDS011;35149;51.196;6.204;2022-12-16T05:47:42;31.05;;;17.10;;
49131;SDS011;35149;51.196;6.204;2022-12-16T05:50:27;30.08;;;17.55;;
49131;SDS011;35149;51.196;6.204;2022-12-16T05:53:15;29.95;;;18.40;;
49131;SDS011;35149;51.196;6.204;2022-12-16T05:56:03;29.95;;;17.13;;
49131;SDS011;35149;51.196;6.204;2022-12-16T05:58:51;29.88;;;16.33;;
49131;SDS011;35149;51.196;6.204;2022-12-16T06:01:37;34.00;;;18.48;;
49131;SDS011;35149;51.196;6.204;2022-12-16T06:04:23;33.78;;;19.15;;
49131;SDS011;35149;51.196;6.204;2022-12-16T06:07:08;34.75;;;19.33;;
49131;SDS011;35149;51.196;6.204;2022-12-16T06:10:07;33.03;;;19.02;;
49131;SDS011;35149;51.196;6.204;2022-12-16T06:12:52;33.50;;;20.05;;
49131;SDS011;35149;51.196;6.204;2022-12-16T06:15:37;37.90;;;21.77;;
49131;SDS011;35149;51.196;6.204;2022-12-16T06:18:26;35.30;;;21.63;;
49131;SDS011;35149;51.196;6.204;2022-12-16T06:21:11;39.03;;;22.00;;
49131;SDS011;35149;51.196;6.204;2022-12-16T06:23:57;42.65;;;24.80;;
49131;SDS011;35149;51.196;6.204;2022-12-16T06:26:42;43.17;;;25.10;;
49131;SDS011;35149;51.196;6.204;2022-12-16T06:29:27;37.97;;;22.60;;
49131;SDS011;35149;51.196;6.204;2022-12-16T06:32:13;35.03;;;22.33;;
49131;SDS011;35149;51.196;6.204;2022-12-16T06:34:58;34.28;;;21.42;;
49131;SDS011;35149;51.196;6.204;2022-12-16T06:37:46;31.98;;;19.88;;
49131;SDS011;35149;51.196;6.204;2022-12-16T06:40:32;33.92;;;19.77;;
49131;SDS011;35149;51.196;6.204;2022-12-16T06:43:20;38.67;;;21.33;;
49131;SDS011;35149;51.196;6.204;2022-12-16T06:46:05;35.95;;;21.80;;
49131;SDS011;35149;51.196;6.204;2022-12-16T06:48:51;56.92;;;30.60;;
49131;SDS011;35149;51.196;6.204;2022-12-16T06:51:36;46.30;;;26.58;;
49131;SDS011;35149;51.196;6.204;2022-12-16T06:54:21;47.30;;;26.63;;
49131;SDS011;35149;51.196;6.204;2022-12-16T06:57:06;70.70;;;37.25;;
49131;SDS011;35149;51.196;6.204;2022-12-16T06:59:52;53.90;;;29.20;;
49131;SDS011;35149;51.196;6.204;2022-12-16T07:02:37;40.90;;;22.42;;
49131;SDS011;35149;51.196;6.204;2022-12-16T07:05:23;38.15;;;24.33;;
49131;SDS011;35149;51.196;6.204;2022-12-16T07:08:08;40.28;;;23.83;;
49131;SDS011;35149;51.196;6.204;2022-12-16T07:10:53;43.33;;;25.15;;
49131;SDS011;35149;51.196;6.204;2022-12-16T07:13:42;41.10;;;24.40;;
49131;SDS011;35149;51.196;6.204;2022-12-16T07:16:27;43.10;;;22.98;;
49131;SDS011;35149;51.196;6.204;2022-12-16T07:19:14;42.80;;;24.67;;
49131;SDS011;35149;51.196;6.204;2022-12-16T07:22:00;38.08;;;22.52;;
49131;SDS011;35149;51.196;6.204;2022-12-16T07:24:45;39.92;;;22.23;;
49131;SDS011;35149;51.196;6.204;2022-12-16T07:27:50;41.10;;;23.25;;
49131;SDS011;35149;51.196;6.204;2022-12-16T07:30:41;40.63;;;23.23;;
49131;SDS011;35149;51.196;6.204;2022-12-16T07:33:27;41.33;;;24.20;;
49131;SDS011;35149;51.196;6.204;2022-12-16T07:36:12;42.85;;;25.98;;
49131;SDS011;35149;51.196;6.204;2022-12-16T07:38:58;45.72;;;26.23;;
49131;SDS011;35149;51.196;6.204;2022-12-16T07:41:43;40.58;;;24.83;;
49131;SDS011;35149;51.196;6.204;2022-12-16T07:44:29;41.88;;;23.23;;
49131;SDS011;35149;51.196;6.204;2022-12-16T07:47:14;39.70;;;23.63;;
49131;SDS011;35149;51.196;6.204;2022-12-16T07:49:59;39.65;;;23.42;;
49131;SDS011;35149;51.196;6.204;2022-12-16T07:52:45;37.13;;;22.35;;
49131;SDS011;35149;51.196;6.204;2022-12-16T07:55:30;36.75;;;23.30;;
49131;SDS011;35149;51.196;6.204;2022-12-16T07:58:16;34.80;;;21.73;;
49131;SDS011;35149;51.196;6.204;2022-12-16T08:01:01;34.50;;;21.65;;
49131;SDS011;35149;51.196;6.204;2022-12-16T08:03:46;37.50;;;21.42;;
49131;SDS011;35149;51.196;6.204;2022-12-16T08:06:32;31.83;;;19.80;;
49131;SDS011;35149;51.196;6.204;2022-12-16T08:09:17;36.25;;;21.05;;
49131;SDS011;35149;51.196;6.204;2022-12-16T08:12:03;34.70;;;22.02;;
49131;SDS011;35149;51.196;6.204;2022-12-16T08:14:48;32.20;;;21.20;;
49131;SDS011;35149;51.196;6.204;2022-12-16T08:17:48;36.03;;;21.20;;
49131;SDS011;35149;51.196;6.204;2022-12-16T08:20:34;32.17;;;20.45;;
49131;SDS011;35149;51.196;6.204;2022-12-16T08:23:20;35.47;;;21.27;;
49131;SDS011;35149;51.196;6.204;2022-12-16T08:26:05;35.67;;;21.92;;
49131;SDS011;35149;51.196;6.204;2022-12-16T08:28:51;36.67;;;22.52;;
49131;SDS011;35149;51.196;6.204;2022-12-16T08:31:56;35.70;;;22.83;;
49131;SDS011;35149;51.196;6.204;2022-12-16T08:34:42;39.00;;;23.60;;
49131;SDS011;35149;51.196;6.204;2022-12-16T08:37:27;38.15;;;23.92;;
49131;SDS011;35149;51.196;6.204;2022-12-16T08:40:12;45.08;;;24.75;;
49131;SDS011;35149;51.196;6.204;2022-12-16T08:43:01;36.35;;;23.40;;
49131;SDS011;35149;51.196;6.204;2022-12-16T08:45:48;36.22;;;22.33;;
49131;SDS011;35149;51.196;6.204;2022-12-16T08:48:37;47.30;;;24.48;;
49131;SDS011;35149;51.196;6.204;2022-12-16T08:51:22;41.33;;;24.88;;
49131;SDS011;35149;51.196;6.204;2022-12-16T08:54:07;41.80;;;24.77;;
49131;SDS011;35149;51.196;6.204;2022-12-16T08:56:53;45.60;;;26.42;;
49131;SDS011;35149;51.196;6.204;2022-12-16T08:59:38;42.22;;;25.73;;
49131;SDS011;35149;51.196;6.204;2022-12-16T09:02:23;39.10;;;23.63;;
49131;SDS011;35149;51.196;6.204;2022-12-16T09:05:09;38.25;;;22.73;;
49131;SDS011;35149;51.196;6.204;2022-12-16T09:08:01;36.75;;;23.33;;
49131;SDS011;35149;51.196;6.204;2022-12-16T09:10:48;37.83;;;24.30;;
49131;SDS011;35149;51.196;6.204;2022-12-16T09:13:33;38.22;;;24.95;;
49131;SDS011;35149;51.196;6.204;2022-12-16T09:16:19;36.20;;;25.02;;
49131;SDS011;35149;51.196;6.204;2022-12-16T09:19:05;33.90;;;23.17;;
49131;SDS011;35149;51.196;6.204;2022-12-16T09:21:50;40.05;;;23.88;;
49131;SDS011;35149;51.196;6.204;2022-12-16T09:24:37;38.20;;;24.08;;
49131;SDS011;35149;51.196;6.204;2022-12-16T09:27:23;40.22;;;25.02;;
49131;SDS011;35149;51.196;6.204;2022-12-16T09:30:08;38.17;;;25.33;;
49131;SDS011;35149;51.196;6.204;2022-12-16T09:32:54;37.72;;;25.20;;
49131;SDS011;35149;51.196;6.204;2022-12-16T09:35:40;41.75;;;26.60;;
49131;SDS011;35149;51.196;6.204;2022-12-16T09:38:25;40.40;;;25.55;;
49131;SDS011;35149;51.196;6.204;2022-12-16T09:44:19;36.22;;;24.75;;
49131;SDS011;35149;51.196;6.204;2022-12-16T09:50:21;35.47;;;24.98;;
49131;SDS011;35149;51.196;6.204;2022-12-16T09:53:10;40.25;;;24.13;;
49131;SDS011;35149;51.196;6.204;2022-12-16T09:55:59;43.33;;;27.20;;
49131;SDS011;35149;51.196;6.204;2022-12-16T09:59:05;40.35;;;23.63;;
49131;SDS011;35149;51.196;6.204;2022-12-16T10:01:56;36.83;;;24.20;;
49131;SDS011;35149;51.196;6.204;2022-12-16T10:04:43;40.38;;;24.38;;
49131;SDS011;35149;51.196;6.204;2022-12-16T10:07:34;41.65;;;25.55;;
49131;SDS011;35149;51.196;6.204;2022-12-16T10:13:26;40.35;;;24.13;;
49131;SDS011;35149;51.196;6.204;2022-12-16T10:16:36;34.67;;;24.05;;
49131;SDS011;35149;51.196;6.204;2022-12-16T10:22:34;46.08;;;25.10;;
49131;SDS011;35149;51.196;6.204;2022-12-16T10:25:31;39.53;;;25.30;;
49131;SDS011;35149;51.196;6.204;2022-12-16T10:31:29;47.63;;;26.92;;
49131;SDS011;35149;51.196;6.204;2022-12-16T10:34:20;42.40;;;25.52;;
49131;SDS011;35149;51.196;6.204;2022-12-16T10:37:20;46.85;;;28.48;;
49131;SDS011;35149;51.196;6.204;2022-12-16T10:40:16;41.28;;;26.70;;
49131;SDS011;35149;51.196;6.204;2022-12-16T10:43:11;41.72;;;26.08;;
49131;SDS011;35149;51.196;6.204;2022-12-16T10:46:04;42.50;;;27.17;;
49131;SDS011;35149;51.196;6.204;2022-12-16T10:48:52;45.83;;;25.23;;
49131;SDS011;35149;51.196;6.204;2022-12-16T10:51:37;40.97;;;25.58;;
49131;SDS011;35149;51.196;6.204;2022-12-16T10:54:24;40.28;;;26.02;;
49131;SDS011;35149;51.196;6.204;2022-12-16T11:01:19;44.92;;;25.15;;
49131;SDS011;35149;51.196;6.204;2022-12-16T11:07:29;46.70;;;28.80;;
49131;SDS011;35149;51.196;6.204;2022-12-16T11:13:29;43.92;;;26.67;;
49131;SDS011;35149;51.196;6.204;2022-12-16T11:19:28;48.28;;;30.00;;
49131;SDS011;35149;51.196;6.204;2022-12-16T11:22:14;43.70;;;27.50;;
49131;SDS011;35149;51.196;6.204;2022-12-16T11:28:01;49.47;;;30.77;;
49131;SDS011;35149;51.196;6.204;2022-12-16T11:30:54;49.92;;;29.58;;
49131;SDS011;35149;51.196;6.204;2022-12-16T11:33:43;43.75;;;27.42;;
49131;SDS011;35149;51.196;6.204;2022-12-16T11:36:29;47.95;;;29.33;;
49131;SDS011;35149;51.196;6.204;2022-12-16T11:39:21;42.05;;;27.88;;
49131;SDS011;35149;51.196;6.204;2022-12-16T11:42:11;48.20;;;29.85;;
49131;SDS011;35149;51.196;6.204;2022-12-16T11:45:03;47.50;;;31.85;;
49131;SDS011;35149;51.196;6.204;2022-12-16T11:50:40;41.60;;;29.27;;
49131;SDS011;35149;51.196;6.204;2022-12-16T11:53:36;59.33;;;32.45;;
49131;SDS011;35149;51.196;6.204;2022-12-16T11:56:31;53.28;;;30.88;;
49131;SDS011;35149;51.196;6.204;2022-12-16T12:02:31;50.65;;;30.83;;
49131;SDS011;35149;51.196;6.204;2022-12-16T12:05:27;53.17;;;31.42;;
49131;SDS011;35149;51.196;6.204;2022-12-16T12:08:35;50.35;;;31.58;;
49131;SDS011;35149;51.196;6.204;2022-12-16T12:11:27;51.85;;;30.92;;
49131;SDS011;35149;51.196;6.204;2022-12-16T12:17:21;50.97;;;29.80;;
49131;SDS011;35149;51.196;6.204;2022-12-16T12:26:31;59.67;;;32.70;;
49131;SDS011;35149;51.196;6.204;2022-12-16T12:32:31;45.05;;;28.85;;
49131;SDS011;35149;51.196;6.204;2022-12-16T12:35:29;52.53;;;29.50;;
49131;SDS011;35149;51.196;6.204;2022-12-16T12:38:29;53.60;;;32.45;;
49131;SDS011;35149;51.196;6.204;2022-12-16T12:47:21;71.10;;;35.33;;
49131;SDS011;35149;51.196;6.204;2022-12-16T12:50:08;56.08;;;31.98;;
49131;SDS011;35149;51.196;6.204;2022-12-16T12:53:30;61.53;;;33.58;;
49131;SDS011;35149;51.196;6.204;2022-12-16T12:59:51;52.25;;;29.70;;
49131;SDS011;35149;51.196;6.204;2022-12-16T13:02:49;53.00;;;30.95;;
49131;SDS011;35149;51.196;6.204;2022-12-16T13:05:37;62.80;;;32.50;;
49131;SDS011;35149;51.196;6.204;2022-12-16T13:08:31;59.53;;;38.45;;
49131;SDS011;35149;51.196;6.204;2022-12-16T13:11:22;54.92;;;32.08;;
49131;SDS011;35149;51.196;6.204;2022-12-16T13:17:17;58.08;;;34.90;;
49131;SDS011;35149;51.196;6.204;2022-12-16T13:26:13;62.95;;;36.30;;
49131;SDS011;35149;51.196;6.204;2022-12-16T13:32:23;62.55;;;38.38;;
49131;SDS011;35149;51.196;6.204;2022-12-16T13:37:54;76.68;;;35.65;;
49131;SDS011;35149;51.196;6.204;2022-12-16T13:40:54;61.92;;;32.97;;
49131;SDS011;35149;51.196;6.204;2022-12-16T13:43:53;58.60;;;33.25;;
49131;SDS011;35149;51.196;6.204;2022-12-16T13:46:47;61.65;;;32.53;;
49131;SDS011;35149;51.196;6.204;2022-12-16T13:58:40;64.47;;;34.85;;
49131;SDS011;35149;51.196;6.204;2022-12-16T14:01:37;61.10;;;34.35;;
49131;SDS011;35149;51.196;6.204;2022-12-16T14:04:35;61.90;;;34.85;;
49131;SDS011;35149;51.196;6.204;2022-12-16T14:07:23;53.97;;;32.40;;
49131;SDS011;35149;51.196;6.204;2022-12-16T14:10:29;60.97;;;32.85;;
49131;SDS011;35149;51.196;6.204;2022-12-16T14:25:33;55.75;;;31.42;;
49131;SDS011;35149;51.196;6.204;2022-12-16T14:28:26;56.88;;;33.60;;
49131;SDS011;35149;51.196;6.204;2022-12-16T14:31:23;62.65;;;32.85;;
49131;SDS011;35149;51.196;6.204;2022-12-16T14:34:19;64.53;;;34.67;;
49131;SDS011;35149;51.196;6.204;2022-12-16T14:40:02;61.97;;;34.13;;
49131;SDS011;35149;51.196;6.204;2022-12-16T14:42:51;60.30;;;33.47;;
49131;SDS011;35149;51.196;6.204;2022-12-16T14:45:38;63.10;;;36.83;;
49131;SDS011;35149;51.196;6.204;2022-12-16T14:48:44;59.75;;;34.47;;
49131;SDS011;35149;51.196;6.204;2022-12-16T14:51:31;63.65;;;35.78;;
49131;SDS011;35149;51.196;6.204;2022-12-16T14:54:22;61.17;;;33.90;;
49131;SDS011;35149;51.196;6.204;2022-12-16T14:57:16;68.47;;;34.30;;
49131;SDS011;35149;51.196;6.204;2022-12-16T15:02:53;63.22;;;29.98;;
49131;SDS011;35149;51.196;6.204;2022-12-16T15:06:04;58.00;;;30.98;;
49131;SDS011;35149;51.196;6.204;2022-12-16T15:08:55;64.35;;;31.15;;
49131;SDS011;35149;51.196;6.204;2022-12-16T15:11:44;64.75;;;30.33;;
49131;SDS011;35149;51.196;6.204;2022-12-16T15:14:31;54.50;;;29.45;;
49131;SDS011;35149;51.196;6.204;2022-12-16T15:17:20;54.10;;;30.15;;
49131;SDS011;35149;51.196;6.204;2022-12-16T15:20:23;57.70;;;29.65;;
49131;SDS011;35149;51.196;6.204;2022-12-16T15:23:18;55.50;;;29.13;;
49131;SDS011;35149;51.196;6.204;2022-12-16T15:26:06;60.30;;;30.10;;
49131;SDS011;35149;51.196;6.204;2022-12-16T15:28:52;58.95;;;29.38;;
49131;SDS011;35149;51.196;6.204;2022-12-16T15:31:39;55.83;;;30.95;;
49131;SDS011;35149;51.196;6.204;2022-12-16T15:34:45;56.75;;;28.80;;
49131;SDS011;35149;51.196;6.204;2022-12-16T15:37:39;49.15;;;28.63;;
49131;SDS011;35149;51.196;6.204;2022-12-16T15:40:30;49.38;;;27.02;;
49131;SDS011;35149;51.196;6.204;2022-12-16T15:46:20;48.38;;;27.40;;
49131;SDS011;35149;51.196;6.204;2022-12-16T15:49:14;57.45;;;28.17;;
49131;SDS011;35149;51.196;6.204;2022-12-16T15:52:31;55.38;;;27.23;;
49131;SDS011;35149;51.196;6.204;2022-12-16T15:55:21;50.55;;;27.27;;
49131;SDS011;35149;51.196;6.204;2022-12-16T16:01:14;54.28;;;27.05;;
49131;SDS011;35149;51.196;6.204;2022-12-16T16:10:17;50.83;;;25.75;;
49131;SDS011;35149;51.196;6.204;2022-12-16T16:13:04;54.35;;;27.20;;
49131;SDS011;35149;51.196;6.204;2022-12-16T16:15:52;53.15;;;26.95;;
49131;SDS011;35149;51.196;6.204;2022-12-16T16:18:38;56.42;;;28.20;;
49131;SDS011;35149;51.196;6.204;2022-12-16T16:21:24;51.58;;;30.00;;
49131;SDS011;35149;51.196;6.204;2022-12-16T16:24:11;59.95;;;30.67;;
49131;SDS011;35149;51.196;6.204;2022-12-16T16:26:58;51.95;;;29.73;;
49131;SDS011;35149;51.196;6.204;2022-12-16T16:29:46;52.70;;;29.20;;
49131;SDS011;35149;51.196;6.204;2022-12-16T16:32:31;118.40;;;65.10;;
49131;SDS011;35149;51.196;6.204;2022-12-16T16:35:17;91.78;;;46.47;;
49131;SDS011;35149;51.196;6.204;2022-12-16T16:38:02;93.88;;;49.72;;
49131;SDS011;35149;51.196;6.204;2022-12-16T16:40:47;72.07;;;37.33;;
49131;SDS011;35149;51.196;6.204;2022-12-16T16:43:41;58.58;;;33.92;;
49131;SDS011;35149;51.196;6.204;2022-12-16T16:46:30;57.78;;;30.77;;
49131;SDS011;35149;51.196;6.204;2022-12-16T16:49:29;52.63;;;29.45;;
49131;SDS011;35149;51.196;6.204;2022-12-16T16:52:17;52.75;;;26.88;;
49131;SDS011;35149;51.196;6.204;2022-12-16T16:55:05;49.65;;;28.42;;
49131;SDS011;35149;51.196;6.204;2022-12-16T16:57:53;45.97;;;25.40;;
49131;SDS011;35149;51.196;6.204;2022-12-16T17:00:38;55.55;;;28.55;;
49131;SDS011;35149;51.196;6.204;2022-12-16T17:03:24;54.03;;;27.50;;
49131;SDS011;35149;51.196;6.204;2022-12-16T17:06:10;52.70;;;28.75;;
49131;SDS011;35149;51.196;6.204;2022-12-16T17:08:55;49.92;;;28.05;;
49131;SDS011;35149;51.196;6.204;2022-12-16T17:11:40;50.17;;;27.25;;
49131;SDS011;35149;51.196;6.204;2022-12-16T17:14:26;58.10;;;30.35;;
49131;SDS011;35149;51.196;6.204;2022-12-16T17:17:11;57.45;;;29.83;;
49131;SDS011;35149;51.196;6.204;2022-12-16T17:19:57;60.28;;;33.42;;
49131;SDS011;35149;51.196;6.204;2022-12-16T17:22:42;97.60;;;48.65;;
49131;SDS011;35149;51.196;6.204;2022-12-16T17:25:28;143.73;;;69.82;;
49131;SDS011;35149;51.196;6.204;2022-12-16T17:28:13;101.68;;;49.00;;
49131;SDS011;35149;51.196;6.204;2022-12-16T17:30:59;78.88;;;39.05;;
49131;SDS011;35149;51.196;6.204;2022-12-16T17:33:44;64.55;;;33.60;;
49131;SDS011;35149;51.196;6.204;2022-12-16T17:36:29;91.53;;;43.10;;
49131;SDS011;35149;51.196;6.204;2022-12-16T17:39:15;94.55;;;49.38;;
49131;SDS011;35149;51.196;6.204;2022-12-16T17:42:02;57.25;;;32.05;;
49131;SDS011;35149;51.196;6.204;2022-12-16T17:44:48;50.95;;;29.02;;
49131;SDS011;35149;51.196;6.204;2022-12-16T17:47:33;49.17;;;28.30;;
49131;SDS011;35149;51.196;6.204;2022-12-16T17:50:19;53.38;;;28.85;;
49131;SDS011;35149;51.196;6.204;2022-12-16T17:53:04;55.00;;;29.83;;
49131;SDS011;35149;51.196;6.204;2022-12-16T17:55:49;49.20;;;27.63;;
49131;SDS011;35149;51.196;6.204;2022-12-16T17:58:35;54.40;;;31.23;;
49131;SDS011;35149;51.196;6.204;2022-12-16T18:01:22;58.75;;;30.63;;
49131;SDS011;35149;51.196;6.204;2022-12-16T18:04:08;61.88;;;30.95;;
49131;SDS011;35149;51.196;6.204;2022-12-16T18:06:54;50.22;;;28.25;;
49131;SDS011;35149;51.196;6.204;2022-12-16T18:09:39;58.08;;;29.20;;
49131;SDS011;35149;51.196;6.204;2022-12-16T18:12:24;55.38;;;29.83;;
49131;SDS011;35149;51.196;6.204;2022-12-16T18:15:10;53.70;;;29.90;;
49131;SDS011;35149;51.196;6.204;2022-12-16T18:17:55;59.85;;;31.33;;
49131;SDS011;35149;51.196;6.204;2022-12-16T18:20:41;55.17;;;30.83;;
49131;SDS011;35149;51.196;6.204;2022-12-16T18:23:29;56.50;;;31.73;;